Time;durP1;ratioP1;P1;durP2;ratioP2;P2;SDS_P1;SDS_P2;PMS_P1;PMS_P2;Temp;Humidity;BMP_temperature;BMP_pressure;BME280_temperature;BME280_humidity;BME280_pressure;Samples;Min_cycle;Max_cycle;Signal;HPM_P1;HPM_P2
2024/02/28 00:02:00;;;;;;;6.10;2.13;;;;;;;;;;10373911;28;20105;-57
2024/02/28 00:07:00;;;;;;;12.85;2.80;;;;;;;;;;10373055;28;20058;-58
2024/02/28 00:12:01;;;;;;;3.38;1.70;;;;;;;;;;10373788;28;20026;-55
2024/02/28 00:17:02;;;;;;;7.65;2.03;;;;;;;;;;10373637;28;20539;-60
2024/02/28 00:22:02;;;;;;;5.07;2.53;;;;;;;;;;10373169;28;20044;-57
2024/02/28 00:27:03;;;;;;;2.65;1.70;;;;;;;;;;10371108;28;20380;-53
2024/02/28 00:32:04;;;;;;;4.15;1.92;;;;;;;;;;10371908;28;20037;-56
2024/02/28 00:37:04;;;;;;;4.68;1.65;;;;;;;;;;10371943;28;20068;-53
2024/02/28 00:42:05;;;;;;;5.50;1.67;;;;;;;;;;10372026;28;20028;-55
2024/02/28 00:47:06;;;;;;;3.28;1.58;;;;;;;;;;10372056;28;20030;-55
2024/02/28 00:52:06;;;;;;;4.07;1.63;;;;;;;;;;10372131;28;20030;-54
2024/02/28 00:57:07;;;;;;;3.13;1.40;;;;;;;;;;10371800;28;20029;-60
2024/02/28 01:02:07;;;;;;;8.20;2.05;;;;;;;;;;10370073;28;20025;-55
2024/02/28 01:07:08;;;;;;;4.20;1.60;;;;;;;;;;10371047;28;20049;-54
2024/02/28 01:12:08;;;;;;;2.15;1.70;;;;;;;;;;10371320;28;20018;-59
2024/02/28 01:17:09;;;;;;;3.47;1.33;;;;;;;;;;10372159;28;20042;-57
2024/02/28 01:22:09;;;;;;;3.08;1.60;;;;;;;;;;10370979;28;20026;-61
2024/02/28 01:27:10;;;;;;;2.28;1.42;;;;;;;;;;10370638;28;20424;-58
2024/02/28 01:32:11;;;;;;;3.15;1.35;;;;;;;;;;10370227;28;20030;-57
2024/02/28 01:37:12;;;;;;;2.72;1.40;;;;;;;;;;10370589;28;20061;-56
2024/02/28 01:42:15;;;;;;;1.40;1.30;;;;;;;;;;10370024;28;20038;-59
2024/02/28 01:47:16;;;;;;;6.68;1.67;;;;;;;;;;10369999;28;20033;-57
2024/02/28 01:52:17;;;;;;;3.22;1.33;;;;;;;;;;10368924;28;20029;-58
2024/02/28 01:57:18;;;;;;;2.40;1.52;;;;;;;;;;10369399;28;20362;-56
2024/02/28 02:02:18;;;;;;;4.05;1.63;;;;;;;;;;10367930;28;20025;-59
2024/02/28 02:07:20;;;;;;;2.85;1.80;;;;;;;;;;10368718;28;20026;-57
2024/02/28 02:12:21;;;;;;;2.78;1.55;;;;;;;;;;10368948;28;20085;-55
2024/02/28 02:17:22;;;;;;;5.55;1.83;;;;;;;;;;10368778;28;20390;-55
2024/02/28 02:22:26;;;;;;;1.30;1.20;;;;;;;;;;10368722;28;20465;-53
2024/02/28 02:27:26;;;;;;;3.38;1.40;;;;;;;;;;10367789;28;20030;-60
2024/02/28 02:32:28;;;;;;;4.05;1.58;;;;;;;;;;10368390;28;20508;-60
2024/02/28 02:37:29;;;;;;;2.47;1.55;;;;;;;;;;10368056;28;20046;-55
2024/02/28 02:42:29;;;;;;;1.60;1.17;;;;;;;;;;10367726;28;20030;-55
2024/02/28 02:47:30;;;;;;;2.40;1.20;;;;;;;;;;10367582;28;20051;-55
2024/02/28 02:52:31;;;;;;;2.75;1.38;;;;;;;;;;10367879;28;20100;-60
2024/02/28 02:57:32;;;;;;;1.40;1.30;;;;;;;;;;10367851;28;20169;-55
2024/02/28 03:02:33;;;;;;;3.42;1.25;;;;;;;;;;10367543;28;20029;-59
2024/02/28 03:07:33;;;;;;;2.90;1.35;;;;;;;;;;10367805;28;20030;-58
2024/02/28 03:12:34;;;;;;;1.42;1.10;;;;;;;;;;10366888;28;20032;-58
2024/02/28 03:17:34;;;;;;;1.90;1.20;;;;;;;;;;10367382;28;20037;-56
2024/02/28 03:22:35;;;;;;;3.90;1.40;;;;;;;;;;10366632;28;20030;-56
2024/02/28 03:27:35;;;;;;;5.85;1.25;;;;;;;;;;10375232;28;20021;-56
2024/02/28 03:32:36;;;;;;;1.27;1.10;;;;;;;;;;10375231;28;20302;-55
2024/02/28 03:37:37;;;;;;;2.92;1.45;;;;;;;;;;10374928;28;20033;-56
2024/02/28 03:42:37;;;;;;;2.40;1.40;;;;;;;;;;10375072;28;20049;-58
2024/02/28 03:47:38;;;;;;;1.65;1.38;;;;;;;;;;10374605;28;20048;-55
2024/02/28 03:52:39;;;;;;;3.60;1.58;;;;;;;;;;10374177;28;20033;-55
2024/02/28 03:57:39;;;;;;;1.58;1.30;;;;;;;;;;10374268;28;20496;-57
2024/02/28 04:02:40;;;;;;;3.28;1.40;;;;;;;;;;10373172;28;20041;-61
2024/02/28 04:07:40;;;;;;;2.35;1.25;;;;;;;;;;10373563;28;20033;-58
2024/02/28 04:12:44;;;;;;;2.30;1.27;;;;;;;;;;10373901;28;20033;-58
2024/02/28 04:17:44;;;;;;;2.13;1.65;;;;;;;;;;10373447;28;20363;-57
2024/02/28 04:22:45;;;;;;;1.98;1.40;;;;;;;;;;10372722;28;20034;-55
2024/02/28 04:27:47;;;;;;;1.95;1.20;;;;;;;;;;10374232;28;20088;-56
2024/02/28 04:32:47;;;;;;;2.25;1.30;;;;;;;;;;10373233;28;20113;-55
2024/02/28 04:37:48;;;;;;;1.20;1.10;;;;;;;;;;10372490;28;20033;-55
2024/02/28 04:42:49;;;;;;;1.48;1.13;;;;;;;;;;10372300;28;20053;-61
2024/02/28 04:47:51;;;;;;;2.33;1.10;;;;;;;;;;10372918;28;20026;-58
2024/02/28 04:52:52;;;;;;;1.25;1.13;;;;;;;;;;10372123;28;20048;-59
2024/02/28 04:57:52;;;;;;;4.63;1.40;;;;;;;;;;10371858;28;20030;-61
2024/02/28 05:02:53;;;;;;;3.95;1.30;;;;;;;;;;10371189;28;20046;-55
2024/02/28 05:07:53;;;;;;;3.00;1.42;;;;;;;;;;10371284;28;20018;-57
2024/02/28 05:12:54;;;;;;;3.47;1.40;;;;;;;;;;10371748;28;20045;-62
2024/02/28 05:17:55;;;;;;;4.15;1.20;;;;;;;;;;10371575;28;20029;-54
2024/02/28 05:22:55;;;;;;;1.08;1.00;;;;;;;;;;10371028;28;20037;-57
2024/02/28 05:27:56;;;;;;;2.65;1.25;;;;;;;;;;10371124;28;20033;-54
2024/02/28 05:32:56;;;;;;;3.33;1.48;;;;;;;;;;10370765;28;20026;-58
2024/02/28 05:37:57;;;;;;;1.65;1.13;;;;;;;;;;10369713;28;20022;-57
2024/02/28 05:42:58;;;;;;;2.33;1.35;;;;;;;;;;10369925;28;20093;-55
2024/02/28 05:47:58;;;;;;;1.30;1.20;;;;;;;;;;10368945;28;20052;-54
2024/02/28 05:52:59;;;;;;;3.85;1.25;;;;;;;;;;10369256;28;20042;-54
2024/02/28 05:58:01;;;;;;;1.17;1.10;;;;;;;;;;10369159;28;20389;-56
2024/02/28 06:03:01;;;;;;;1.38;1.20;;;;;;;;;;10369298;28;20088;-60
2024/02/28 06:08:02;;;;;;;1.48;1.00;;;;;;;;;;10369065;28;20378;-56
2024/02/28 06:13:03;;;;;;;2.25;1.15;;;;;;;;;;10368693;28;20104;-58
2024/02/28 06:18:03;;;;;;;2.42;1.20;;;;;;;;;;10369050;28;20022;-58
2024/02/28 06:23:04;;;;;;;1.73;1.23;;;;;;;;;;10367560;28;20038;-54
2024/02/28 06:28:06;;;;;;;2.05;1.33;;;;;;;;;;10366446;28;20033;-54
2024/02/28 06:33:08;;;;;;;2.25;1.20;;;;;;;;;;10368379;28;20038;-55
2024/02/28 06:38:09;;;;;;;3.72;1.45;;;;;;;;;;10367451;28;20377;-54
2024/02/28 06:43:09;;;;;;;8.82;1.33;;;;;;;;;;10367528;28;20030;-57
2024/02/28 06:48:10;;;;;;;2.53;1.38;;;;;;;;;;10367437;28;20026;-57
2024/02/28 06:53:11;;;;;;;3.25;1.30;;;;;;;;;;10367486;28;20036;-57
2024/02/28 06:58:11;;;;;;;3.80;1.38;;;;;;;;;;10366299;28;20033;-59
2024/02/28 07:03:12;;;;;;;4.88;1.65;;;;;;;;;;10366405;28;20053;-57
2024/02/28 07:08:13;;;;;;;10.32;1.42;;;;;;;;;;10366715;28;20077;-58
2024/02/28 07:13:13;;;;;;;6.70;1.92;;;;;;;;;;10366627;28;20162;-57
2024/02/28 07:18:14;;;;;;;9.25;1.50;;;;;;;;;;10366272;28;20382;-62
2024/02/28 07:23:15;;;;;;;3.78;1.23;;;;;;;;;;10366160;28;20029;-60
2024/02/28 07:28:15;;;;;;;18.20;2.25;;;;;;;;;;10366696;28;20429;-62
2024/02/28 07:33:16;;;;;;;10.02;1.95;;;;;;;;;;10367131;28;20037;-58
2024/02/28 07:38:20;;;;;;;12.98;1.80;;;;;;;;;;10366588;28;20033;-59
2024/02/28 07:43:20;;;;;;;8.05;1.40;;;;;;;;;;10366806;28;20118;-55
2024/02/28 07:48:21;;;;;;;2.85;1.42;;;;;;;;;;10366339;28;20026;-58
2024/02/28 07:53:22;;;;;;;4.57;1.50;;;;;;;;;;10366698;28;20037;-61
2024/02/28 07:58:23;;;;;;;2.80;1.35;;;;;;;;;;10366729;28;20030;-62
2024/02/28 08:03:23;;;;;;;3.67;1.58;;;;;;;;;;10365431;28;20278;-60
2024/02/28 08:08:24;;;;;;;4.38;1.60;;;;;;;;;;10366213;28;20470;-62
2024/02/28 08:13:28;;;;;;;6.93;1.27;;;;;;;;;;10373007;28;20472;-63
2024/02/28 08:18:28;;;;;;;5.97;1.42;;;;;;;;;;10374053;28;20053;-62
2024/02/28 08:23:30;;;;;;;4.63;1.42;;;;;;;;;;10373366;28;20461;-58
2024/02/28 08:28:31;;;;;;;5.70;1.80;;;;;;;;;;10372894;28;20358;-58
2024/02/28 08:33:32;;;;;;;3.20;1.27;;;;;;;;;;10372730;28;20088;-55
2024/02/28 08:38:32;;;;;;;4.65;1.75;;;;;;;;;;10372891;28;20041;-58
2024/02/28 08:43:42;;;;;;;1.67;1.33;;;;;;;;;;10372347;28;20022;-56
2024/02/28 08:48:43;;;;;;;4.70;1.45;;;;;;;;;;10371849;28;20060;-55
2024/02/28 08:53:44;;;;;;;3.45;1.63;;;;;;;;;;10371838;28;20022;-61
2024/02/28 08:58:44;;;;;;;4.13;1.38;;;;;;;;;;10371512;28;20482;-53
2024/02/28 09:03:45;;;;;;;6.22;1.50;;;;;;;;;;10371802;28;20042;-57
2024/02/28 09:08:45;;;;;;;3.58;1.50;;;;;;;;;;10371313;28;20026;-58
2024/02/28 09:13:46;;;;;;;5.22;1.40;;;;;;;;;;10371425;28;20030;-57
2024/02/28 09:18:46;;;;;;;3.28;1.40;;;;;;;;;;10371267;28;20496;-54
2024/02/28 09:23:47;;;;;;;4.40;1.30;;;;;;;;;;10369790;28;20041;-57
2024/02/28 09:28:48;;;;;;;4.50;1.25;;;;;;;;;;10370143;28;20083;-57
2024/02/28 09:33:48;;;;;;;2.78;1.20;;;;;;;;;;10370680;28;20034;-60
2024/02/28 09:38:49;;;;;;;2.45;1.33;;;;;;;;;;10370171;28;20032;-62
2024/02/28 09:43:50;;;;;;;2.17;1.38;;;;;;;;;;10369534;28;20053;-63
2024/02/28 09:48:52;;;;;;;1.88;1.35;;;;;;;;;;10368435;28;20036;-55
2024/02/28 09:53:52;;;;;;;3.08;1.45;;;;;;;;;;10369210;28;20505;-57
2024/02/28 09:58:54;;;;;;;5.38;1.67;;;;;;;;;;10369639;28;20076;-55
2024/02/28 10:03:56;;;;;;;1.80;1.48;;;;;;;;;;10369231;28;20050;-61
2024/02/28 10:08:56;;;;;;;2.42;1.55;;;;;;;;;;10369370;28;20087;-61
2024/02/28 10:13:59;;;;;;;1.88;1.27;;;;;;;;;;10368804;28;20543;-62
2024/02/28 10:18:59;;;;;;;5.13;1.30;;;;;;;;;;10368982;28;20062;-61
2024/02/28 10:24:00;;;;;;;2.85;1.30;;;;;;;;;;10368042;28;20033;-61
2024/02/28 10:29:02;;;;;;;2.38;1.55;;;;;;;;;;10368262;28;20025;-58
2024/02/28 10:34:04;;;;;;;2.50;1.40;;;;;;;;;;10366570;28;20026;-54
2024/02/28 10:39:07;;;;;;;5.32;1.35;;;;;;;;;;10368730;28;20032;-58
2024/02/28 10:44:10;;;;;;;4.95;1.30;;;;;;;;;;10367934;28;20034;-63
2024/02/28 10:49:10;;;;;;;1.95;1.30;;;;;;;;;;10367943;28;20025;-59
2024/02/28 10:54:13;;;;;;;4.75;1.40;;;;;;;;;;10366451;28;20029;-62
2024/02/28 10:59:13;;;;;;;4.93;1.45;;;;;;;;;;10367265;28;20030;-58
2024/02/28 11:04:17;;;;;;;2.88;1.40;;;;;;;;;;10366428;28;20050;-61
2024/02/28 11:09:28;;;;;;;3.28;1.50;;;;;;;;;;10348576;28;20029;-54
2024/02/28 11:14:29;;;;;;;1.50;1.40;;;;;;;;;;10366918;28;20105;-59
2024/02/28 11:19:32;;;;;;;1.80;1.50;;;;;;;;;;10366203;28;20037;-62
2024/02/28 11:24:36;;;;;;;3.03;1.85;;;;;;;;;;10366629;28;20112;-62
2024/02/28 11:29:36;;;;;;;3.40;1.65;;;;;;;;;;10366927;28;20022;-62
2024/02/28 11:34:39;;;;;;;3.97;1.80;;;;;;;;;;10366816;28;20536;-59
2024/02/28 11:39:40;;;;;;;3.28;1.52;;;;;;;;;;10367167;28;20036;-62
2024/02/28 11:44:40;;;;;;;4.22;2.03;;;;;;;;;;10367202;28;20466;-59
2024/02/28 11:49:41;;;;;;;3.97;1.85;;;;;;;;;;10374255;28;20029;-62
2024/02/28 11:54:45;;;;;;;4.07;1.98;;;;;;;;;;10373850;28;20029;-60
2024/02/28 11:59:46;;;;;;;2.90;2.00;;;;;;;;;;10373702;28;20517;-56
2024/02/28 12:04:49;;;;;;;2.50;1.90;;;;;;;;;;10374161;28;20049;-58
2024/02/28 12:09:50;;;;;;;4.95;1.90;;;;;;;;;;10373496;28;20100;-54
2024/02/28 12:14:51;;;;;;;2.13;1.90;;;;;;;;;;10373652;28;20030;-62
2024/02/28 12:19:53;;;;;;;3.55;2.00;;;;;;;;;;10373634;28;20037;-57
2024/02/28 12:24:53;;;;;;;3.58;1.98;;;;;;;;;;10372943;28;20113;-62
2024/02/28 12:29:54;;;;;;;4.90;2.00;;;;;;;;;;10373040;28;20056;-57
2024/02/28 12:34:54;;;;;;;8.32;2.20;;;;;;;;;;10372311;28;20378;-60
2024/02/28 12:39:55;;;;;;;9.77;2.47;;;;;;;;;;10372963;28;20536;-61
2024/02/28 12:44:55;;;;;;;5.63;2.25;;;;;;;;;;10371744;28;20374;-61
2024/02/28 12:49:56;;;;;;;3.00;2.03;;;;;;;;;;10373043;28;20482;-62
2024/02/28 12:54:57;;;;;;;5.18;2.20;;;;;;;;;;10371269;28;20370;-54
2024/02/28 12:59:57;;;;;;;5.63;2.33;;;;;;;;;;10370826;28;20466;-56
2024/02/28 13:04:58;;;;;;;4.32;2.15;;;;;;;;;;10371288;28;20571;-60
2024/02/28 13:09:59;;;;;;;4.90;2.00;;;;;;;;;;10370727;28;20449;-60
2024/02/28 13:15:00;;;;;;;5.30;2.53;;;;;;;;;;10370721;28;20041;-62
2024/02/28 13:20:00;;;;;;;3.92;2.00;;;;;;;;;;10369443;28;20026;-63
2024/02/28 13:25:01;;;;;;;11.45;2.30;;;;;;;;;;10369221;28;20030;-53
2024/02/28 13:30:01;;;;;;;4.50;2.30;;;;;;;;;;10369894;28;20050;-62
2024/02/28 13:35:02;;;;;;;3.67;2.47;;;;;;;;;;10370548;28;20029;-61
2024/02/28 13:40:04;;;;;;;3.28;2.25;;;;;;;;;;10370266;28;20026;-61
2024/02/28 13:45:07;;;;;;;3.63;2.05;;;;;;;;;;10368910;28;20053;-61
2024/02/28 13:50:09;;;;;;;5.30;2.10;;;;;;;;;;10366589;28;20018;-61
2024/02/28 13:55:10;;;;;;;5.90;2.45;;;;;;;;;;10360675;28;20041;-55
2024/02/28 14:00:13;;;;;;;2.25;1.90;;;;;;;;;;10368361;28;20030;-55
2024/02/28 14:05:13;;;;;;;3.83;2.20;;;;;;;;;;10368268;28;20049;-62
2024/02/28 14:10:15;;;;;;;4.75;2.45;;;;;;;;;;10368107;28;20182;-61
2024/02/28 14:15:16;;;;;;;4.25;2.80;;;;;;;;;;10366999;28;20030;-54
2024/02/28 14:20:17;;;;;;;5.78;2.90;;;;;;;;;;10368611;28;20030;-62
2024/02/28 14:25:20;;;;;;;9.45;2.78;;;;;;;;;;10368970;28;20061;-63
2024/02/28 14:30:22;;;;;;;4.88;2.85;;;;;;;;;;10365533;28;20485;-61
2024/02/28 14:35:22;;;;;;;5.13;2.85;;;;;;;;;;10367798;28;20034;-58
2024/02/28 14:40:23;;;;;;;6.32;2.83;;;;;;;;;;10367704;28;20036;-56
2024/02/28 14:45:28;;;;;;;5.97;2.67;;;;;;;;;;10367395;28;20030;-61
2024/02/28 14:50:28;;;;;;;5.07;2.70;;;;;;;;;;10368133;28;20091;-56
2024/02/28 14:55:30;;;;;;;7.05;2.80;;;;;;;;;;10367002;28;20026;-61
2024/02/28 15:00:30;;;;;;;4.88;2.50;;;;;;;;;;10366860;28;20049;-62
2024/02/28 15:05:31;;;;;;;3.95;2.83;;;;;;;;;;10366649;28;20050;-59
2024/02/28 15:10:33;;;;;;;4.25;2.42;;;;;;;;;;10366588;28;20022;-58
2024/02/28 15:15:33;;;;;;;4.68;2.70;;;;;;;;;;10366134;28;20026;-62
2024/02/28 15:20:34;;;;;;;6.28;3.38;;;;;;;;;;10366466;28;20466;-54
2024/02/28 15:25:34;;;;;;;3.83;2.90;;;;;;;;;;10366547;28;20500;-56
2024/02/28 15:30:35;;;;;;;6.65;2.88;;;;;;;;;;10365545;28;20466;-57
2024/02/28 15:35:36;;;;;;;7.07;3.13;;;;;;;;;;10365008;28;20503;-57
2024/02/28 15:40:36;;;;;;;7.65;2.72;;;;;;;;;;10366772;28;20110;-62
2024/02/28 15:45:39;;;;;;;3.28;2.83;;;;;;;;;;10365962;28;20392;-60
2024/02/28 15:50:40;;;;;;;5.53;2.70;;;;;;;;;;10365052;28;20496;-57
2024/02/28 15:55:40;;;;;;;5.22;3.15;;;;;;;;;;10366113;28;20036;-57
2024/02/28 16:00:41;;;;;;;4.85;3.05;;;;;;;;;;10366464;28;20026;-57
2024/02/28 16:05:41;;;;;;;5.57;3.03;;;;;;;;;;10365546;28;20045;-58
2024/02/28 16:10:43;;;;;;;5.40;3.28;;;;;;;;;;10366189;28;20053;-62
2024/02/28 16:15:43;;;;;;;6.70;3.10;;;;;;;;;;10365535;28;20549;-59
2024/02/28 16:20:44;;;;;;;8.60;2.90;;;;;;;;;;10366373;28;20037;-62
2024/02/28 16:25:44;;;;;;;3.72;2.80;;;;;;;;;;10365067;28;20037;-61
2024/02/28 16:30:46;;;;;;;6.50;3.30;;;;;;;;;;10366787;28;20030;-55
2024/02/28 16:35:47;;;;;;;4.68;3.25;;;;;;;;;;10372277;28;20057;-61
2024/02/28 16:40:47;;;;;;;7.68;2.90;;;;;;;;;;10372844;28;20060;-62
2024/02/28 16:45:49;;;;;;;6.75;3.03;;;;;;;;;;10371332;28;20362;-61
2024/02/28 16:50:50;;;;;;;6.20;2.95;;;;;;;;;;10371460;28;20108;-54
2024/02/28 16:55:50;;;;;;;4.28;2.72;;;;;;;;;;10371903;28;20076;-62
2024/02/28 17:00:51;;;;;;;4.70;2.78;;;;;;;;;;10372161;28;20049;-62
2024/02/28 17:05:51;;;;;;;5.75;3.17;;;;;;;;;;10387657;23;20410;-67
2024/02/28 17:10:53;;;;;;;4.35;2.67;;;;;;;;;;10377234;28;20429;-66
2024/02/28 17:15:54;;;;;;;6.93;2.80;;;;;;;;;;10371744;28;20561;-64
2024/02/28 17:20:55;;;;;;;4.07;2.58;;;;;;;;;;10370782;28;20057;-64
2024/02/28 17:25:58;;;;;;;5.53;3.08;;;;;;;;;;10370269;28;20541;-64
2024/02/28 17:30:58;;;;;;;4.70;2.63;;;;;;;;;;10370163;28;20076;-63
2024/02/28 17:35:59;;;;;;;5.95;3.28;;;;;;;;;;10370323;28;20091;-66
2024/02/28 17:40:59;;;;;;;6.55;2.58;;;;;;;;;;10368316;28;20348;-69
2024/02/28 17:46:00;;;;;;;4.90;2.67;;;;;;;;;;10368111;28;20041;-67
2024/02/28 17:51:03;;;;;;;3.63;2.60;;;;;;;;;;10370095;28;20030;-63
2024/02/28 17:56:06;;;;;;;6.80;2.90;;;;;;;;;;10369618;28;20100;-67
2024/02/28 18:01:07;;;;;;;6.10;2.70;;;;;;;;;;10369367;28;20121;-65
2024/02/28 18:06:07;;;;;;;5.47;2.60;;;;;;;;;;10368766;28;20497;-60
2024/02/28 18:11:08;;;;;;;3.58;2.40;;;;;;;;;;10369061;28;20022;-63
2024/02/28 18:16:09;;;;;;;3.85;2.47;;;;;;;;;;10367965;28;20022;-63
2024/02/28 18:21:10;;;;;;;4.97;2.70;;;;;;;;;;10369181;28;20030;-63
2024/02/28 18:26:12;;;;;;;5.38;3.22;;;;;;;;;;10368689;28;20040;-64
2024/02/28 18:31:12;;;;;;;6.80;3.28;;;;;;;;;;10367935;28;20033;-65
2024/02/28 18:36:15;;;;;;;5.43;2.90;;;;;;;;;;10367410;28;20026;-65
2024/02/28 18:41:16;;;;;;;7.47;2.67;;;;;;;;;;10368306;28;20026;-64
2024/02/28 18:46:17;;;;;;;4.90;2.78;;;;;;;;;;10366387;28;20033;-64
2024/02/28 18:51:17;;;;;;;4.07;2.67;;;;;;;;;;10366687;28;20084;-66
2024/02/28 18:56:18;;;;;;;5.15;2.72;;;;;;;;;;10366360;28;20335;-67
2024/02/28 19:01:18;;;;;;;2.88;2.50;;;;;;;;;;10366965;28;20369;-64
2024/02/28 19:06:20;;;;;;;3.42;2.55;;;;;;;;;;10366180;28;20413;-66
2024/02/28 19:11:21;;;;;;;7.60;2.75;;;;;;;;;;10367245;28;20033;-66
2024/02/28 19:16:22;;;;;;;5.43;2.38;;;;;;;;;;10366789;28;20030;-66
2024/02/28 19:21:22;;;;;;;4.10;2.35;;;;;;;;;;10366661;28;20040;-64
2024/02/28 19:26:23;;;;;;;3.20;2.35;;;;;;;;;;10365971;28;20041;-61
2024/02/28 19:31:24;;;;;;;3.22;2.47;;;;;;;;;;10367126;28;20030;-66
2024/02/28 19:36:24;;;;;;;6.93;2.70;;;;;;;;;;10365682;28;20034;-62
2024/02/28 19:41:26;;;;;;;5.90;2.53;;;;;;;;;;10364890;28;20029;-64
2024/02/28 19:46:26;;;;;;;4.75;2.63;;;;;;;;;;10365861;28;20049;-62
2024/02/28 19:51:27;;;;;;;4.63;2.70;;;;;;;;;;10365937;28;20109;-64
2024/02/28 19:56:27;;;;;;;4.13;2.65;;;;;;;;;;10365247;28;20092;-64
2024/02/28 20:01:28;;;;;;;3.30;2.83;;;;;;;;;;10364475;28;20026;-62
2024/02/28 20:06:29;;;;;;;5.25;2.50;;;;;;;;;;10366836;28;20058;-64
2024/02/28 20:11:29;;;;;;;5.72;2.90;;;;;;;;;;10370584;28;20037;-62
2024/02/28 20:16:30;;;;;;;4.80;2.95;;;;;;;;;;10372974;28;20030;-65
2024/02/28 20:21:31;;;;;;;3.55;2.63;;;;;;;;;;10372543;28;20053;-65
2024/02/28 20:26:31;;;;;;;5.70;2.65;;;;;;;;;;10372619;28;20033;-63
2024/02/28 20:31:32;;;;;;;5.40;3.05;;;;;;;;;;10372091;28;20390;-64
2024/02/28 20:36:34;;;;;;;4.97;2.63;;;;;;;;;;10371248;28;20017;-65
2024/02/28 20:41:35;;;;;;;3.63;2.92;;;;;;;;;;10371969;28;20021;-64
2024/02/28 20:46:39;;;;;;;5.25;2.58;;;;;;;;;;10372904;28;20034;-63
2024/02/28 20:51:40;;;;;;;2.97;2.13;;;;;;;;;;10372577;28;20096;-65
2024/02/28 20:56:41;;;;;;;5.40;2.65;;;;;;;;;;10371673;28;20065;-65
2024/02/28 21:01:41;;;;;;;4.57;2.78;;;;;;;;;;10371691;28;20046;-65
2024/02/28 21:06:42;;;;;;;3.30;2.60;;;;;;;;;;10371790;28;20490;-65
2024/02/28 21:11:42;;;;;;;5.82;2.25;;;;;;;;;;10372325;28;20528;-62
2024/02/28 21:16:43;;;;;;;2.67;2.47;;;;;;;;;;10370491;28;20033;-62
2024/02/28 21:21:43;;;;;;;4.22;2.45;;;;;;;;;;10372245;28;20030;-62
2024/02/28 21:26:45;;;;;;;3.58;2.38;;;;;;;;;;10371501;28;20373;-64
2024/02/28 21:31:45;;;;;;;4.45;2.63;;;;;;;;;;10370462;28;20424;-62
2024/02/28 21:36:46;;;;;;;5.45;2.55;;;;;;;;;;10371112;28;20084;-63
2024/02/28 21:41:50;;;;;;;3.55;2.42;;;;;;;;;;10370314;28;20113;-64
2024/02/28 21:46:51;;;;;;;3.30;2.13;;;;;;;;;;10370917;28;20208;-62
2024/02/28 21:51:51;;;;;;;3.67;2.47;;;;;;;;;;10369213;28;20191;-62
2024/02/28 21:56:52;;;;;;;4.25;2.08;;;;;;;;;;10369294;28;20473;-65
2024/02/28 22:01:53;;;;;;;6.35;2.20;;;;;;;;;;10369070;28;20076;-61
2024/02/28 22:06:54;;;;;;;11.30;2.75;;;;;;;;;;10367708;28;20054;-63
2024/02/28 22:11:54;;;;;;;6.72;2.55;;;;;;;;;;10368215;28;20034;-63
2024/02/28 22:16:55;;;;;;;4.75;2.20;;;;;;;;;;10369411;28;20469;-63
2024/02/28 22:21:55;;;;;;;6.43;2.47;;;;;;;;;;10369073;28;20030;-64
2024/02/28 22:26:56;;;;;;;4.13;2.25;;;;;;;;;;10368707;28;20474;-62
2024/02/28 22:31:56;;;;;;;3.78;2.25;;;;;;;;;;10368620;28;20034;-64
2024/02/28 22:36:57;;;;;;;16.50;2.70;;;;;;;;;;10368416;28;20029;-64
2024/02/28 22:41:58;;;;;;;5.25;2.35;;;;;;;;;;10368348;28;20026;-64
2024/02/28 22:46:59;;;;;;;3.50;2.10;;;;;;;;;;10367556;28;20056;-66
2024/02/28 22:51:59;;;;;;;4.57;1.95;;;;;;;;;;10367248;28;20030;-63
2024/02/28 22:57:00;;;;;;;4.30;2.40;;;;;;;;;;10366868;28;20033;-62
2024/02/28 23:02:00;;;;;;;7.22;2.17;;;;;;;;;;10367842;28;20041;-62
2024/02/28 23:07:02;;;;;;;3.03;1.80;;;;;;;;;;10366650;28;20045;-62
2024/02/28 23:12:04;;;;;;;3.47;2.28;;;;;;;;;;10365834;28;20068;-64
2024/02/28 23:17:04;;;;;;;4.57;2.10;;;;;;;;;;10366070;28;20056;-66
2024/02/28 23:22:07;;;;;;;3.22;2.10;;;;;;;;;;10366709;28;20062;-65
2024/02/28 23:27:08;;;;;;;5.18;2.17;;;;;;;;;;10364801;28;20034;-65
2024/02/28 23:32:08;;;;;;;5.28;2.22;;;;;;;;;;10364749;28;20469;-66
2024/02/28 23:37:09;;;;;;;2.60;2.17;;;;;;;;;;10364450;28;20442;-64
2024/02/28 23:42:09;;;;;;;4.22;1.88;;;;;;;;;;10369661;28;20524;-65
2024/02/28 23:47:10;;;;;;;3.38;2.10;;;;;;;;;;10375675;28;20049;-63
2024/02/28 23:52:11;;;;;;;5.07;2.22;;;;;;;;;;10374358;28;20518;-65
2024/02/28 23:57:11;;;;;;;4.72;2.72;;;;;;;;;;10374191;28;20022;-62
